Time;durP1;ratioP1;P1;durP2;ratioP2;P2;SDS_P1;SDS_P2;PMS_P1;PMS_P2;Temp;Humidity;BMP_temperature;BMP_pressure;BME280_temperature;BME280_humidity;BME280_pressure;Samples;Min_cycle;Max_cycle;Signal;HPM_P1;HPM_P2
2022/06/12 00:01:36;;;;;;;8.73;2.60;;;;;;;-147.53;100.00;57128.34;10321550;28;20056;-72
2022/06/12 00:06:38;;;;;;;13.00;2.92;;;;;;;-147.53;100.00;57128.34;10329238;28;20050;-73
2022/06/12 00:11:41;;;;;;;18.75;3.60;;;;;;;-147.53;100.00;57128.34;10307947;28;20065;-72
2022/06/12 00:16:43;;;;;;;11.80;3.15;;;;;;;-147.53;100.00;57128.34;10321957;28;20054;-71
2022/06/12 00:21:45;;;;;;;17.23;3.20;;;;;;;-147.53;100.00;57128.34;10303180;28;20498;-72
2022/06/12 00:26:50;;;;;;;15.93;2.97;;;;;;;-147.53;100.00;57128.34;10321928;28;20046;-72
2022/06/12 00:31:56;;;;;;;17.95;3.65;;;;;;;-147.53;100.00;57128.34;10319391;28;20046;-72
2022/06/12 00:36:59;;;;;;;12.77;3.17;;;;;;;-147.53;100.00;57128.34;10303989;28;20108;-72
2022/06/12 00:42:02;;;;;;;18.45;3.95;;;;;;;-147.53;100.00;57128.34;10314377;28;20141;-72
2022/06/12 00:47:08;;;;;;;10.45;2.45;;;;;;;-147.53;100.00;57128.34;10320869;28;20129;-72
2022/06/12 00:52:39;;;;;;;12.73;2.88;;;;;;;-147.53;100.00;57128.34;10322713;28;20045;-72
2022/06/12 00:57:40;;;;;;;;;;;;;;;-147.53;100.00;57128.34;10305732;28;20065;-71
2022/06/12 01:02:42;;;;;;;17.83;4.60;;;;;;;-147.53;100.00;57128.34;10319731;28;19925;-72
2022/06/12 01:07:48;;;;;;;13.18;3.08;;;;;;;-147.53;100.00;57128.34;10319429;28;20141;-71
2022/06/12 01:12:57;;;;;;;12.77;2.92;;;;;;;-147.53;100.00;57128.34;10319224;28;20226;-71
2022/06/12 01:17:59;;;;;;;13.57;3.10;;;;;;;-147.53;100.00;57128.34;10301543;28;20462;-72
2022/06/12 01:23:18;;;;;;;16.92;3.17;;;;;;;-147.53;100.00;57128.34;10311935;28;20145;-72
2022/06/12 01:28:47;;;;;;;11.80;3.07;;;;;;;-147.53;100.00;57128.34;10319036;28;20042;-72
2022/06/12 01:34:06;;;;;;;11.98;2.80;;;;;;;-147.53;100.00;57128.34;10319301;28;20076;-72
2022/06/12 01:39:22;;;;;;;13.63;3.70;;;;;;;-147.53;100.00;57128.34;10318479;28;20830;-72
2022/06/12 01:44:40;;;;;;;13.00;3.70;;;;;;;-147.53;100.00;57128.34;10318299;28;20444;-71
2022/06/12 01:50:07;;;;;;;15.63;2.50;;;;;;;-147.53;100.00;57128.34;10324101;28;20050;-73
2022/06/12 01:55:12;;;;;;;11.05;3.10;;;;;;;-147.53;100.00;57128.34;10308737;28;20160;-72
2022/06/12 02:00:19;;;;;;;13.25;3.25;;;;;;;-147.53;100.00;57128.34;10300316;28;20052;-72
2022/06/12 02:05:45;;;;;;;6.28;2.35;;;;;;;-147.53;100.00;57128.34;10299125;28;20112;-71
2022/06/12 02:10:54;;;;;;;11.70;4.53;;;;;;;-147.53;100.00;57128.34;10323025;28;20124;-71
2022/06/12 02:16:06;;;;;;;7.90;2.40;;;;;;;-147.53;100.00;57128.34;10332713;28;20125;-72
2022/06/12 02:21:26;;;;;;;16.52;3.90;;;;;;;-147.53;100.00;57128.34;10322999;28;20042;-71
2022/06/12 02:26:40;;;;;;;16.52;3.45;;;;;;;-147.53;100.00;57128.34;10331133;28;20046;-71
2022/06/12 02:31:45;;;;;;;9.40;3.38;;;;;;;-147.53;100.00;57128.34;10322449;28;20109;-71
2022/06/12 02:36:51;;;;;;;13.48;3.08;;;;;;;-147.53;100.00;57128.34;10317556;28;20057;-72
2022/06/12 02:41:59;;;;;;;16.65;3.25;;;;;;;-147.53;100.00;57128.34;10323457;28;20057;-72
2022/06/12 02:47:10;;;;;;;14.73;3.30;;;;;;;-147.53;100.00;57128.34;10324645;28;20482;-72
2022/06/12 02:52:22;;;;;;;11.18;3.20;;;;;;;-147.53;100.00;57128.34;10331509;28;20085;-71
2022/06/12 02:57:41;;;;;;;9.07;3.70;;;;;;;-147.53;100.00;57128.34;10326527;28;20044;-72
2022/06/12 03:03:02;;;;;;;13.57;3.00;;;;;;;-147.53;100.00;57128.34;10309321;28;20046;-71
2022/06/12 03:08:16;;;;;;;11.15;3.42;;;;;;;-147.53;100.00;57128.34;10335488;28;20085;-72
2022/06/12 03:13:19;;;;;;;12.52;4.00;;;;;;;-147.53;100.00;57128.34;10326337;28;20538;-71
2022/06/12 03:18:48;;;;;;;14.38;3.30;;;;;;;-147.53;100.00;57128.34;10332180;28;20529;-71
2022/06/12 03:24:23;;;;;;;10.10;3.20;;;;;;;-147.53;100.00;57128.34;10330951;28;20839;-71
2022/06/12 03:29:38;;;;;;;14.35;3.17;;;;;;;-147.53;100.00;57128.34;10317549;28;20045;-72
2022/06/12 03:35:08;;;;;;;9.27;3.33;;;;;;;-147.53;100.00;57128.34;10330107;28;20538;-72
2022/06/12 03:40:19;;;;;;;;;;;;;;;-147.53;100.00;57128.34;10330884;28;20665;-71
2022/06/12 03:45:28;;;;;;;13.82;3.75;;;;;;;-147.53;100.00;57128.34;10323135;28;19932;-72
2022/06/12 03:50:43;;;;;;;13.05;3.08;;;;;;;-147.53;100.00;57128.34;10329300;28;20079;-72
2022/06/12 04:01:44;;;;;;;15.45;4.38;;;;;;;-147.53;100.00;57128.34;10318063;28;20050;-73
2022/06/12 04:06:47;;;;;;;16.42;4.47;;;;;;;-147.53;100.00;57128.34;10321971;28;20125;-72
2022/06/12 04:11:57;;;;;;;14.63;4.70;;;;;;;-147.53;100.00;57128.34;10320730;28;20046;-72
2022/06/12 04:17:02;;;;;;;15.55;4.30;;;;;;;-147.53;100.00;57128.34;10327616;28;20050;-72
2022/06/12 04:22:14;;;;;;;16.67;4.50;;;;;;;-147.53;100.00;57128.34;10319143;28;20068;-72
2022/06/12 04:27:33;;;;;;;13.32;3.75;;;;;;;-147.53;100.00;57128.34;10319146;28;20058;-72
2022/06/12 04:32:35;;;;;;;16.20;4.43;;;;;;;-147.53;100.00;57128.34;10332092;28;20053;-71
2022/06/12 04:37:37;;;;;;;18.90;4.80;;;;;;;-147.53;100.00;57128.34;10324940;28;20129;-71
2022/06/12 04:42:38;;;;;;;21.08;4.47;;;;;;;-147.53;100.00;57128.34;10325256;28;20425;-71
2022/06/12 04:47:40;;;;;;;14.57;4.35;;;;;;;-147.53;100.00;57128.34;10318696;28;20629;-71
2022/06/12 04:52:42;;;;;;;13.85;4.93;;;;;;;-147.53;100.00;57128.34;10317397;28;20052;-70
2022/06/12 04:57:43;;;;;;;21.52;4.63;;;;;;;-147.53;100.00;57128.34;10323331;28;20053;-71
2022/06/12 05:02:45;;;;;;;16.60;5.05;;;;;;;-147.53;100.00;57128.34;10317432;28;20145;-73
2022/06/12 05:07:47;;;;;;;13.88;4.22;;;;;;;-147.53;100.00;57128.34;10294233;28;20061;-72
2022/06/12 05:12:48;;;;;;;18.52;4.50;;;;;;;-147.53;100.00;57128.34;10324583;28;20050;-72
2022/06/12 05:17:50;;;;;;;17.17;4.63;;;;;;;-147.53;100.00;57128.34;10322906;28;20065;-72
2022/06/12 05:22:52;;;;;;;21.15;4.97;;;;;;;-147.53;100.00;57128.34;10316144;28;20866;-72
2022/06/12 05:27:54;;;;;;;20.25;5.40;;;;;;;-147.53;100.00;57128.34;10316677;28;20502;-71
2022/06/12 05:32:57;;;;;;;18.33;4.63;;;;;;;-147.53;100.00;57128.34;10315856;28;20076;-72
2022/06/12 05:38:00;;;;;;;23.52;5.80;;;;;;;-147.53;100.00;57128.34;10323706;28;20059;-73
2022/06/12 05:43:02;;;;;;;24.40;6.93;;;;;;;-147.53;100.00;57128.34;10309374;28;20043;-72
2022/06/12 05:48:11;;;;;;;17.50;5.25;;;;;;;-147.53;100.00;57128.34;10316254;28;20142;-72
2022/06/12 05:53:14;;;;;;;23.13;5.18;;;;;;;-147.53;100.00;57128.34;10316140;28;20129;-72
2022/06/12 05:58:17;;;;;;;19.83;4.90;;;;;;;-147.53;100.00;57128.34;10316307;28;20077;-72
2022/06/12 06:03:19;;;;;;;20.58;4.03;;;;;;;-147.53;100.00;57128.34;10315390;28;20042;-72
2022/06/12 06:08:21;;;;;;;16.27;3.95;;;;;;;-147.53;100.00;57128.34;10328293;28;20127;-72
2022/06/12 06:13:22;;;;;;;13.57;3.53;;;;;;;-147.53;100.00;57128.34;10308621;28;20050;-72
2022/06/12 06:18:24;;;;;;;20.75;4.50;;;;;;;-147.53;100.00;57128.34;10315556;28;20133;-72
2022/06/12 06:23:25;;;;;;;20.48;3.92;;;;;;;-147.53;100.00;57128.34;10314688;28;20573;-72
2022/06/12 06:28:27;;;;;;;17.27;3.97;;;;;;;-147.53;100.00;57128.34;10313877;28;20121;-71
2022/06/12 06:33:29;;;;;;;17.35;4.00;;;;;;;-147.53;100.00;57128.34;10327359;28;20494;-72
2022/06/12 06:38:31;;;;;;;14.77;3.35;;;;;;;-147.53;100.00;57128.34;10314817;28;20053;-72
2022/06/12 06:46:13;;;;;;;13.10;3.17;;;;;;;-147.53;100.00;57128.34;10313772;28;20046;-71
2022/06/12 06:48:54;;;;;;;16.35;3.17;;;;;;;-147.53;100.00;57128.34;10309893;28;20046;-71
2022/06/12 06:53:56;;;;;;;16.85;3.58;;;;;;;-147.53;100.00;57128.34;10313534;28;20054;-71
2022/06/12 06:58:57;;;;;;;12.30;2.70;;;;;;;-147.53;100.00;57128.34;10313802;28;20129;-72
2022/06/12 07:03:59;;;;;;;13.02;2.17;;;;;;;-147.53;100.00;57128.34;10313829;28;20140;-72
2022/06/12 07:09:00;;;;;;;10.98;2.30;;;;;;;-147.53;100.00;57128.34;10314220;28;20046;-72
2022/06/12 07:14:02;;;;;;;10.68;1.90;;;;;;;-147.53;100.00;57128.34;10313794;28;20269;-72
2022/06/12 07:19:03;;;;;;;9.30;1.88;;;;;;;-147.53;100.00;57128.34;10302320;28;20055;-72
2022/06/12 07:24:05;;;;;;;13.23;1.92;;;;;;;-147.53;100.00;57128.34;10313384;28;20391;-72
2022/06/12 07:29:09;;;;;;;13.90;2.13;;;;;;;-147.53;100.00;57128.34;10313839;28;20042;-72
2022/06/12 07:34:12;;;;;;;8.98;1.50;;;;;;;-147.53;100.00;57128.34;10314181;28;20054;-72
2022/06/12 07:39:24;;;;;;;11.50;2.10;;;;;;;-147.53;100.00;57128.34;10316382;28;20053;-72
2022/06/12 07:44:33;;;;;;;12.27;2.15;;;;;;;-147.53;100.00;57128.34;10314332;28;20050;-72
2022/06/12 07:49:35;;;;;;;7.30;1.55;;;;;;;-147.53;100.00;57128.34;10320376;28;20053;-72
2022/06/12 07:54:37;;;;;;;9.70;1.55;;;;;;;-147.53;100.00;57128.34;10320096;28;20043;-71
2022/06/12 07:59:38;;;;;;;9.52;2.05;;;;;;;-147.53;100.00;57128.34;10319999;28;20046;-72
2022/06/12 08:04:40;;;;;;;12.77;2.35;;;;;;;-147.53;100.00;57128.34;10319653;28;20844;-72
2022/06/12 08:09:41;;;;;;;11.18;1.90;;;;;;;-147.53;100.00;57128.34;10319468;28;20042;-71
2022/06/12 08:14:43;;;;;;;9.32;2.20;;;;;;;-147.53;100.00;57128.34;10326185;28;20506;-72
2022/06/12 08:25:06;;;;;;;11.82;1.75;;;;;;;-147.53;100.00;57128.34;10319945;28;20053;-72
2022/06/12 08:30:08;;;;;;;13.88;1.98;;;;;;;-147.53;100.00;57128.34;10318904;28;20035;-71
2022/06/12 08:35:16;;;;;;;9.63;2.00;;;;;;;-147.53;100.00;57128.34;10319272;28;20081;-72
2022/06/12 08:40:28;;;;;;;8.95;1.85;;;;;;;-147.53;100.00;57128.34;10314647;28;20043;-72
2022/06/12 08:45:41;;;;;;;9.77;2.20;;;;;;;-147.53;100.00;57128.34;10326977;28;20641;-72
2022/06/12 08:50:50;;;;;;;11.52;2.13;;;;;;;-147.53;100.00;57128.34;10317817;28;20042;-72
2022/06/12 08:56:05;;;;;;;14.05;2.30;;;;;;;-147.53;100.00;57128.34;10320581;28;20046;-73
2022/06/12 09:01:07;;;;;;;10.52;2.00;;;;;;;-147.53;100.00;57128.34;10318654;28;20053;-72
2022/06/12 09:06:43;;;;;;;17.50;3.13;;;;;;;-147.53;100.00;57128.34;10319911;28;20505;-72
2022/06/12 09:12:06;;;;;;;11.75;2.58;;;;;;;-147.53;100.00;57128.34;10297908;28;20054;-72
2022/06/12 09:17:48;;;;;;;14.52;2.33;;;;;;;-147.53;100.00;57128.34;10319704;28;20046;-72
2022/06/12 09:23:15;;;;;;;11.57;2.60;;;;;;;-147.53;100.00;57128.34;10289701;28;20141;-72
2022/06/12 09:28:40;;;;;;;12.05;2.22;;;;;;;-147.53;100.00;57128.34;10318137;28;20453;-72
2022/06/12 09:34:09;;;;;;;10.73;2.22;;;;;;;-147.53;100.00;57128.34;10313222;28;20631;-72
2022/06/12 09:39:23;;;;;;;;;;;;;;;-147.53;100.00;57128.34;10318265;28;20046;-72
2022/06/12 09:44:37;;;;;;;11.10;2.00;;;;;;;-147.53;100.00;57128.34;10317423;28;19926;-71
2022/06/12 09:49:51;;;;;;;12.13;2.15;;;;;;;-147.53;100.00;57128.34;10323724;28;20047;-71
2022/06/12 09:55:11;;;;;;;14.95;1.98;;;;;;;-147.53;100.00;57128.34;10300136;28;20145;-72
2022/06/12 10:00:26;;;;;;;10.90;2.50;;;;;;;-147.53;100.00;57128.34;10317514;28;20050;-70
2022/06/12 10:05:49;;;;;;;9.48;1.80;;;;;;;-147.53;100.00;57128.34;10317293;28;20054;-71
2022/06/12 10:10:59;;;;;;;10.13;1.85;;;;;;;-147.53;100.00;57128.34;10305565;28;20147;-72
2022/06/12 10:16:09;;;;;;;10.07;2.13;;;;;;;-147.53;100.00;57128.34;10330015;28;20121;-72
2022/06/12 10:21:16;;;;;;;8.65;1.58;;;;;;;-147.53;100.00;57128.34;10311056;28;20073;-72
2022/06/12 10:26:22;;;;;;;13.52;3.30;;;;;;;-147.53;100.00;57128.34;10317008;28;20050;-71
2022/06/12 10:31:23;;;;;;;15.20;2.25;;;;;;;-147.53;100.00;57128.34;10315635;28;20050;-71
2022/06/12 10:36:28;;;;;;;10.50;2.15;;;;;;;-147.53;100.00;57128.34;10316610;28;20128;-71
2022/06/12 10:41:31;;;;;;;9.48;1.90;;;;;;;-147.53;100.00;57128.34;10322516;28;20042;-72
2022/06/12 10:46:32;;;;;;;12.45;2.20;;;;;;;-147.53;100.00;57128.34;10316577;28;20049;-73
2022/06/12 10:51:38;;;;;;;11.60;2.38;;;;;;;-147.53;100.00;57128.34;10317296;28;20409;-71
2022/06/12 10:56:46;;;;;;;8.40;1.77;;;;;;;-147.53;100.00;57128.34;10316989;28;20050;-72
2022/06/12 11:01:48;;;;;;;13.05;2.00;;;;;;;-147.53;100.00;57128.34;10315896;28;20043;-72
2022/06/12 11:07:25;;;;;;;14.10;2.38;;;;;;;-147.53;100.00;57128.34;10315582;28;20050;-72
2022/06/12 11:13:06;;;;;;;8.65;1.60;;;;;;;-147.53;100.00;57128.34;10314795;28;20054;-72
2022/06/12 11:18:14;;;;;;;10.30;2.00;;;;;;;-147.53;100.00;57128.34;10325001;28;20520;-71
2022/06/12 11:23:43;;;;;;;7.32;1.75;;;;;;;-147.53;100.00;57128.34;10323577;28;20064;-72
2022/06/12 11:29:01;;;;;;;9.32;1.75;;;;;;;-147.53;100.00;57128.34;10327808;28;20047;-73
2022/06/12 11:34:44;;;;;;;9.48;2.10;;;;;;;-147.53;100.00;57128.34;10322811;28;20069;-73
2022/06/12 11:39:55;;;;;;;6.22;1.52;;;;;;;-147.53;100.00;57128.34;10329876;28;20055;-72
2022/06/12 11:45:18;;;;;;;9.73;1.90;;;;;;;-147.53;100.00;57128.34;10322684;28;20432;-70
2022/06/12 11:50:32;;;;;;;5.75;1.40;;;;;;;-147.53;100.00;57128.34;10323093;28;20490;-71
2022/06/12 11:55:46;;;;;;;8.15;1.65;;;;;;;-147.53;100.00;57128.34;10317124;28;20096;-72
2022/06/12 12:01:10;;;;;;;7.38;1.52;;;;;;;-147.53;100.00;57128.34;10329069;28;20038;-73
2022/06/12 12:06:31;;;;;;;7.38;1.60;;;;;;;-147.53;100.00;57128.34;10316461;28;20069;-72
2022/06/12 12:11:47;;;;;;;6.05;1.48;;;;;;;-147.53;100.00;57128.34;10321604;28;20117;-72
2022/06/12 12:16:58;;;;;;;6.80;1.67;;;;;;;-147.53;100.00;57128.34;10328085;28;20046;-72
2022/06/12 12:22:38;;;;;;;8.10;1.63;;;;;;;-147.53;100.00;57128.34;10310200;28;20042;-74
2022/06/12 12:27:43;;;;;;;8.32;2.05;;;;;;;-147.53;100.00;57128.34;10304376;28;20097;-72
2022/06/12 12:32:48;;;;;;;7.65;1.67;;;;;;;-147.53;100.00;57128.34;10320298;28;20049;-71
2022/06/12 12:43:09;;;;;;;9.10;1.70;;;;;;;-147.53;100.00;57128.34;10321809;28;20143;-72
2022/06/12 12:48:15;;;;;;;10.05;1.52;;;;;;;-147.53;100.00;57128.34;10326928;28;20042;-71
2022/06/12 12:53:27;;;;;;;6.93;1.73;;;;;;;-147.53;100.00;57128.34;10326190;28;20088;-70
2022/06/12 12:58:30;;;;;;;4.47;1.27;;;;;;;-147.53;100.00;57128.34;10319852;28;20046;-73
2022/06/12 13:03:44;;;;;;;10.50;1.60;;;;;;;-147.53;100.00;57128.34;10319409;28;20046;-71
2022/06/12 13:09:01;;;;;;;8.38;2.05;;;;;;;-147.53;100.00;57128.34;10308836;28;20046;-72
2022/06/12 13:14:05;;;;;;;8.32;1.85;;;;;;;-147.53;100.00;57128.34;10301761;28;20050;-72
2022/06/12 13:19:34;;;;;;;7.35;1.98;;;;;;;-147.53;100.00;57128.34;10319353;28;20065;-72
2022/06/12 13:25:01;;;;;;;5.40;1.60;;;;;;;-147.53;100.00;57128.34;10318995;28;20058;-71
2022/06/12 13:30:19;;;;;;;8.18;2.10;;;;;;;-147.53;100.00;57128.34;10314605;28;20039;-73
2022/06/12 13:35:31;;;;;;;6.28;1.67;;;;;;;-147.53;100.00;57128.34;10318718;28;20050;-72
2022/06/12 13:40:38;;;;;;;6.28;1.42;;;;;;;-147.53;100.00;57128.34;10319736;28;20046;-72
2022/06/12 13:45:51;;;;;;;8.63;1.55;;;;;;;-147.53;100.00;57128.34;10318733;28;20046;-72
2022/06/12 13:51:00;;;;;;;7.38;1.33;;;;;;;-147.53;100.00;57128.34;10323922;28;20050;-71
2022/06/12 13:56:03;;;;;;;8.15;1.40;;;;;;;-147.53;100.00;57128.34;10312833;28;20046;-71
2022/06/12 14:01:20;;;;;;;9.15;1.60;;;;;;;-147.53;100.00;57128.34;10317458;28;20121;-72
2022/06/12 14:06:31;;;;;;;8.40;1.48;;;;;;;-147.53;100.00;57128.34;10318719;28;20124;-72
2022/06/12 14:11:35;;;;;;;4.63;1.30;;;;;;;-147.53;100.00;57128.34;10317507;28;20490;-72
2022/06/12 14:16:45;;;;;;;4.60;1.33;;;;;;;-147.53;100.00;57128.34;10320311;28;20145;-72
2022/06/12 14:22:14;;;;;;;7.35;1.95;;;;;;;-147.53;100.00;57128.34;10319471;28;20050;-73
2022/06/12 14:27:36;;;;;;;9.03;1.27;;;;;;;-147.53;100.00;57128.34;10317187;28;20129;-72
2022/06/12 14:32:46;;;;;;;4.80;1.40;;;;;;;-147.53;100.00;57128.34;10322777;28;21220;-73
2022/06/12 14:37:48;;;;;;;9.65;1.60;;;;;;;-147.53;100.00;57128.34;10316987;28;20047;-72
2022/06/12 14:43:07;;;;;;;6.00;1.30;;;;;;;-147.53;100.00;57128.34;10315708;28;20049;-72
2022/06/12 14:48:12;;;;;;;5.28;1.40;;;;;;;-147.53;100.00;57128.34;10317530;28;20063;-72
2022/06/12 14:53:14;;;;;;;5.07;1.25;;;;;;;-147.53;100.00;57128.34;10324227;28;20046;-73
2022/06/12 14:58:38;;;;;;;5.28;1.05;;;;;;;-147.53;100.00;57128.34;10324674;28;20105;-72
2022/06/12 15:03:40;;;;;;;4.45;1.20;;;;;;;-147.53;100.00;57128.34;10323701;28;20073;-71
2022/06/12 15:08:42;;;;;;;8.70;1.63;;;;;;;-147.53;100.00;57128.34;10324384;28;20506;-73
2022/06/12 15:13:46;;;;;;;6.25;1.55;;;;;;;-147.53;100.00;57128.34;10323326;28;20532;-72
2022/06/12 15:18:47;;;;;;;7.25;1.60;;;;;;;-147.53;100.00;57128.34;10317499;28;20140;-72
2022/06/12 15:23:49;;;;;;;6.45;1.75;;;;;;;-147.53;100.00;57128.34;10323009;28;20551;-72
2022/06/12 15:34:11;;;;;;;9.73;1.92;;;;;;;-147.53;100.00;57128.34;10323034;28;20060;-73
2022/06/12 15:39:12;;;;;;;7.70;2.10;;;;;;;-147.53;100.00;57128.34;10305657;28;20592;-72
2022/06/12 15:44:14;;;;;;;6.78;1.77;;;;;;;-147.53;100.00;57128.34;10322949;28;20058;-72
2022/06/12 15:49:16;;;;;;;8.88;1.95;;;;;;;-147.53;100.00;57128.34;10322629;28;20074;-73
2022/06/12 15:54:21;;;;;;;9.23;2.28;;;;;;;-147.53;100.00;57128.34;10321882;28;20128;-73
2022/06/12 15:59:28;;;;;;;10.07;2.78;;;;;;;-147.53;100.00;57128.34;10321741;28;20050;-73
2022/06/12 16:04:29;;;;;;;8.60;2.15;;;;;;;-147.53;100.00;57128.34;10328591;28;20069;-73
2022/06/12 16:09:31;;;;;;;6.53;1.77;;;;;;;-147.53;100.00;57128.34;10321699;28;20145;-73
2022/06/12 16:14:33;;;;;;;11.65;2.35;;;;;;;-147.53;100.00;57128.34;10321493;28;20050;-72
2022/06/12 16:19:34;;;;;;;10.88;2.13;;;;;;;-147.53;100.00;57128.34;10322712;28;20050;-72
2022/06/12 16:24:36;;;;;;;7.28;1.98;;;;;;;-147.53;100.00;57128.34;10326222;28;20053;-74
2022/06/12 16:29:38;;;;;;;9.35;2.33;;;;;;;-147.53;100.00;57128.34;10321751;28;20048;-74
2022/06/12 16:34:40;;;;;;;5.72;1.58;;;;;;;-147.53;100.00;57128.34;10327887;28;20133;-72
2022/06/12 16:39:42;;;;;;;9.57;2.00;;;;;;;-147.53;100.00;57128.34;10325178;28;20056;-74
2022/06/12 16:44:43;;;;;;;10.00;2.05;;;;;;;-147.53;100.00;57128.34;10311307;28;20097;-73
2022/06/12 16:49:45;;;;;;;11.65;2.53;;;;;;;-147.53;100.00;57128.34;10319768;28;20046;-74
2022/06/12 16:54:54;;;;;;;7.60;2.13;;;;;;;-147.53;100.00;57128.34;10314941;28;20050;-73
2022/06/12 16:59:55;;;;;;;8.45;1.92;;;;;;;-147.53;100.00;57128.34;10319781;28;20169;-73
2022/06/12 17:04:59;;;;;;;9.35;2.20;;;;;;;-147.53;100.00;57128.34;10319120;28;20050;-73
2022/06/12 17:10:01;;;;;;;11.60;2.83;;;;;;;-147.53;100.00;57128.34;10319082;28;20065;-72
2022/06/12 17:15:05;;;;;;;8.20;2.00;;;;;;;-147.53;100.00;57128.34;10318718;28;20042;-74
2022/06/12 17:25:27;;;;;;;11.25;2.50;;;;;;;-147.53;100.00;57128.34;10319604;28;20521;-74
2022/06/12 17:30:28;;;;;;;12.70;2.55;;;;;;;-147.53;100.00;57128.34;10318686;28;20043;-73
2022/06/12 17:35:30;;;;;;;16.48;3.38;;;;;;;-147.53;100.00;57128.34;10324546;28;20050;-73
2022/06/12 17:40:31;;;;;;;9.02;2.30;;;;;;;-147.53;100.00;57128.34;10319788;28;20061;-73
2022/06/12 17:45:33;;;;;;;13.20;2.65;;;;;;;-147.53;100.00;57128.34;10331810;28;20052;-73
2022/06/12 17:50:38;;;;;;;10.10;2.40;;;;;;;-147.53;100.00;57128.34;10300216;28;20050;-73
2022/06/12 17:55:41;;;;;;;10.82;2.67;;;;;;;-147.53;100.00;57128.34;10307862;28;20050;-73
2022/06/12 18:00:44;;;;;;;12.27;3.38;;;;;;;-147.53;100.00;57128.34;10323681;28;20034;-73
2022/06/12 18:05:47;;;;;;;12.23;2.60;;;;;;;-147.53;100.00;57128.34;10301711;28;20671;-74
2022/06/12 18:10:49;;;;;;;9.98;2.55;;;;;;;-147.53;100.00;57128.34;10323633;28;20057;-74
2022/06/12 18:21:11;;;;;;;8.55;2.60;;;;;;;-147.53;100.00;57128.34;10325664;28;20058;-73
2022/06/12 18:26:12;;;;;;;13.73;3.15;;;;;;;-147.53;100.00;57128.34;10318651;28;20046;-73
2022/06/12 18:31:14;;;;;;;15.50;2.80;;;;;;;-147.53;100.00;57128.34;10317543;28;20072;-73
2022/06/12 18:36:16;;;;;;;8.68;2.40;;;;;;;-147.53;100.00;57128.34;10308288;28;20112;-73
2022/06/12 18:41:18;;;;;;;13.23;3.22;;;;;;;-147.53;100.00;57128.34;10317409;28;20498;-74
2022/06/12 18:46:20;;;;;;;12.38;2.80;;;;;;;-147.53;100.00;57128.34;10324714;28;20053;-73
2022/06/12 18:51:23;;;;;;;8.35;2.83;;;;;;;-147.53;100.00;57128.34;10333707;28;20116;-73
2022/06/12 18:56:25;;;;;;;11.43;2.78;;;;;;;-147.53;100.00;57128.34;10329433;28;20152;-73
2022/06/12 19:01:27;;;;;;;14.95;2.72;;;;;;;-147.53;100.00;57128.34;10336918;28;20042;-73
2022/06/12 19:06:28;;;;;;;9.05;2.40;;;;;;;-147.53;100.00;57128.34;10348660;28;20124;-73
2022/06/12 19:11:40;;;;;;;9.05;2.55;;;;;;;-147.53;100.00;57128.34;10322329;28;20482;-72
2022/06/12 19:16:44;;;;;;;14.35;2.95;;;;;;;-147.53;100.00;57128.34;10300193;28;20042;-72
2022/06/12 19:21:46;;;;;;;11.65;2.78;;;;;;;-147.53;100.00;57128.34;10322538;28;20132;-73
2022/06/12 19:26:49;;;;;;;11.05;2.90;;;;;;;-147.53;100.00;57128.34;10315565;28;20050;-73
2022/06/12 19:31:51;;;;;;;14.38;2.40;;;;;;;-147.53;100.00;57128.34;10318373;28;20140;-73
2022/06/12 19:36:59;;;;;;;10.57;2.45;;;;;;;-147.53;100.00;57128.34;10327686;28;20049;-73
2022/06/12 19:42:02;;;;;;;9.98;2.45;;;;;;;-147.53;100.00;57128.34;10322286;28;20054;-71
2022/06/12 19:47:07;;;;;;;11.98;2.42;;;;;;;-147.53;100.00;57128.34;10337255;28;20050;-73
2022/06/12 19:52:09;;;;;;;16.25;2.58;;;;;;;-147.53;100.00;57128.34;10336693;28;20091;-73
2022/06/12 19:57:11;;;;;;;7.85;1.73;;;;;;;-147.53;100.00;57128.34;10332854;28;20708;-72
2022/06/12 20:02:13;;;;;;;8.13;2.40;;;;;;;-147.53;100.00;57128.34;10327440;28;20053;-73
2022/06/12 20:07:27;;;;;;;11.13;2.50;;;;;;;-147.53;100.00;57128.34;10327732;28;20053;-73
2022/06/12 20:12:30;;;;;;;10.52;2.28;;;;;;;-147.53;100.00;57128.34;10321321;28;20078;-73
2022/06/12 20:17:32;;;;;;;8.35;2.35;;;;;;;-147.53;100.00;57128.34;10321104;28;20053;-72
2022/06/12 20:22:34;;;;;;;9.40;2.35;;;;;;;-147.53;100.00;57128.34;10319781;28;20056;-72
2022/06/12 20:27:35;;;;;;;12.55;2.50;;;;;;;-147.53;100.00;57128.34;10320376;28;20501;-73
2022/06/12 20:32:37;;;;;;;15.60;2.85;;;;;;;-147.53;100.00;57128.34;10325866;28;20046;-73
2022/06/12 20:37:38;;;;;;;13.75;2.35;;;;;;;-147.53;100.00;57128.34;10325933;28;20042;-73
2022/06/12 20:42:40;;;;;;;15.18;2.88;;;;;;;-147.53;100.00;57128.34;10319748;28;20042;-72
2022/06/12 20:47:42;;;;;;;17.30;3.08;;;;;;;-147.53;100.00;57128.34;10312030;28;20154;-72
2022/06/12 20:52:44;;;;;;;12.15;2.90;;;;;;;-147.53;100.00;57128.34;10318805;28;20054;-73
2022/06/12 20:57:45;;;;;;;9.68;2.95;;;;;;;-147.53;100.00;57128.34;10301506;28;20054;-72
2022/06/12 21:02:47;;;;;;;12.38;2.88;;;;;;;-147.53;100.00;57128.34;10319324;28;20042;-73
2022/06/12 21:07:48;;;;;;;10.32;2.53;;;;;;;-147.53;100.00;57128.34;10319651;28;20046;-73
2022/06/12 21:12:50;;;;;;;12.30;2.38;;;;;;;-147.53;100.00;57128.34;10318799;28;20042;-73
2022/06/12 21:17:52;;;;;;;13.80;3.05;;;;;;;-147.53;100.00;57128.34;10325066;28;20046;-73
2022/06/12 21:22:55;;;;;;;10.95;2.67;;;;;;;-147.53;100.00;57128.34;10317867;28;20124;-73
2022/06/12 21:27:57;;;;;;;10.88;3.03;;;;;;;-147.53;100.00;57128.34;10325419;28;20054;-73
2022/06/12 21:32:58;;;;;;;16.27;3.13;;;;;;;-147.53;100.00;57128.34;10319646;28;20038;-72
2022/06/12 21:38:00;;;;;;;10.02;2.83;;;;;;;-147.53;100.00;57128.34;10322856;28;20042;-73
2022/06/12 21:43:02;;;;;;;14.43;2.30;;;;;;;-147.53;100.00;57128.34;10319808;28;20797;-73
2022/06/12 21:48:04;;;;;;;11.45;3.70;;;;;;;-147.53;100.00;57128.34;10322482;28;20138;-73
2022/06/12 21:58:26;;;;;;;12.93;2.90;;;;;;;-147.53;100.00;57128.34;10313917;28;20117;-73
2022/06/12 22:03:28;;;;;;;11.30;3.25;;;;;;;-147.53;100.00;57128.34;10330992;28;20069;-73
2022/06/12 22:08:31;;;;;;;15.68;3.08;;;;;;;-147.53;100.00;57128.34;10318169;28;20070;-72
2022/06/12 22:13:33;;;;;;;16.73;3.05;;;;;;;-147.53;100.00;57128.34;10317231;28;20060;-72
2022/06/12 22:18:34;;;;;;;13.60;3.58;;;;;;;-147.53;100.00;57128.34;10317228;28;20498;-73
2022/06/12 22:23:36;;;;;;;13.38;2.95;;;;;;;-147.53;100.00;57128.34;10322001;28;20050;-72
2022/06/12 22:28:38;;;;;;;15.23;3.47;;;;;;;-147.53;100.00;57128.34;10323049;28;20062;-73
2022/06/12 22:33:39;;;;;;;12.70;3.08;;;;;;;-147.53;100.00;57128.34;10315561;28;20034;-72
2022/06/12 22:38:41;;;;;;;10.07;3.05;;;;;;;-147.53;100.00;57128.34;10315973;28;20053;-73
2022/06/12 22:43:43;;;;;;;11.32;3.13;;;;;;;-147.53;100.00;57128.34;10298607;28;20057;-73
2022/06/12 22:48:45;;;;;;;14.18;3.05;;;;;;;-147.53;100.00;57128.34;10316183;28;20566;-73
2022/06/12 22:53:47;;;;;;;19.55;4.15;;;;;;;-147.53;100.00;57128.34;10315396;28;20074;-73
2022/06/12 22:58:49;;;;;;;13.93;3.83;;;;;;;-147.53;100.00;57128.34;10315633;28;20038;-74
2022/06/12 23:03:51;;;;;;;11.10;3.03;;;;;;;-147.53;100.00;57128.34;10314263;28;20478;-73
2022/06/12 23:08:53;;;;;;;15.70;3.30;;;;;;;-147.53;100.00;57128.34;10315625;28;20116;-72
2022/06/12 23:13:54;;;;;;;15.50;3.72;;;;;;;-147.53;100.00;57128.34;10323494;28;20046;-73
2022/06/12 23:18:56;;;;;;;20.77;3.92;;;;;;;-147.53;100.00;57128.34;10323302;28;20514;-73
2022/06/12 23:23:57;;;;;;;17.73;4.05;;;;;;;-147.53;100.00;57128.34;10323018;28;20047;-72
2022/06/12 23:29:06;;;;;;;13.07;3.22;;;;;;;-147.53;100.00;57128.34;10323649;28;20573;-74